createdAt,value
2023-01-01T00:00:40.553Z,4.50
2023-01-01T00:03:07.624Z,4.52
2023-01-01T00:05:37.858Z,4.56
2023-01-01T00:08:06.017Z,4.49
2023-01-01T00:10:33.332Z,4.46
2023-01-01T00:13:00.618Z,4.46
2023-01-01T00:15:27.761Z,4.47
2023-01-01T00:17:55.026Z,4.34
2023-01-01T00:20:22.660Z,4.42
2023-01-01T00:22:57.033Z,4.32
2023-01-01T00:25:25.347Z,4.40
2023-01-01T00:27:52.367Z,4.34
2023-01-01T00:30:19.539Z,4.35
2023-01-01T00:32:55.299Z,4.33
2023-01-01T00:35:26.105Z,4.30
2023-01-01T00:37:54.137Z,4.33
2023-01-01T00:40:21.619Z,4.29
2023-01-01T00:42:48.532Z,4.29
2023-01-01T00:45:20.838Z,4.27
2023-01-01T00:47:50.696Z,4.32
2023-01-01T00:50:17.970Z,4.31
2023-01-01T00:52:45.227Z,4.31
2023-01-01T00:55:12.185Z,4.29
2023-01-01T00:57:39.413Z,4.26
2023-01-01T01:00:08.241Z,4.25
2023-01-01T01:02:35.466Z,4.12
2023-01-01T01:05:03.814Z,4.07
2023-01-01T01:07:38.208Z,4.11
2023-01-01T01:10:05.902Z,4.09
2023-01-01T01:12:35.158Z,4.12
2023-01-01T01:15:02.301Z,4.09
2023-01-01T01:17:30.893Z,4.07
2023-01-01T01:19:58.276Z,4.08
2023-01-01T01:22:28.797Z,4.02
2023-01-01T01:24:58.315Z,4.04
2023-01-01T01:27:27.138Z,3.99
2023-01-01T01:29:54.631Z,4.04
2023-01-01T01:32:21.588Z,4.00
2023-01-01T01:34:48.508Z,3.99
2023-01-01T01:37:16.565Z,3.98
2023-01-01T01:39:43.442Z,3.98
2023-01-01T01:42:17.506Z,4.00
2023-01-01T01:44:51.287Z,3.96
2023-01-01T01:47:46.019Z,3.94
2023-01-01T01:50:13.374Z,3.92
2023-01-01T01:53:06.927Z,3.92
2023-01-01T01:55:37.932Z,3.89
2023-01-01T01:58:07.453Z,3.80
2023-01-01T02:00:34.427Z,3.87
2023-01-01T02:03:12.664Z,3.84
2023-01-01T02:05:41.845Z,3.88
2023-01-01T02:08:10.116Z,3.89
2023-01-01T02:10:37.312Z,3.86
2023-01-01T02:13:04.255Z,3.86
2023-01-01T02:16:21.761Z,3.82
2023-01-01T02:19:13.132Z,3.78
2023-01-01T02:21:59.727Z,3.74
2023-01-01T02:24:41.943Z,3.75
2023-01-01T02:27:50.906Z,3.72
2023-01-01T02:30:18.473Z,3.70
2023-01-01T02:32:54.439Z,3.72
2023-01-01T02:35:35.735Z,3.62
2023-01-01T02:38:15.665Z,3.68
2023-01-01T02:40:49.351Z,3.67
2023-01-01T02:43:20.236Z,3.70
2023-01-01T02:45:52.017Z,3.50
2023-01-01T02:48:39.105Z,3.66
2023-01-01T02:51:22.815Z,3.66
2023-01-01T02:54:14.688Z,3.66
2023-01-01T02:56:53.501Z,3.67
2023-01-01T02:59:51.814Z,3.68
2023-01-01T03:02:37.710Z,3.64
2023-01-01T03:05:30.837Z,3.63
2023-01-01T03:08:15.166Z,3.61
2023-01-01T03:11:03.803Z,3.45
2023-01-01T03:13:48.898Z,3.12
2023-01-01T03:16:29.563Z,3.55
2023-01-01T03:19:11.597Z,3.53
2023-01-01T03:21:47.600Z,3.47
2023-01-01T03:24:23.973Z,3.48
2023-01-01T03:26:57.230Z,3.49
2023-01-01T03:29:27.330Z,3.46
2023-01-01T03:31:58.049Z,3.45
2023-01-01T03:34:36.990Z,3.42
2023-01-01T03:37:12.303Z,3.43
2023-01-01T03:39:45.394Z,3.39
2023-01-01T03:42:30.990Z,3.39
2023-01-01T03:45:10.114Z,3.40
2023-01-01T03:47:37.876Z,3.34
2023-01-01T03:50:06.113Z,3.24
2023-01-01T03:52:52.515Z,3.24
2023-01-01T03:55:28.638Z,3.31
2023-01-01T03:58:24.853Z,3.32
2023-01-01T04:01:03.967Z,3.27
2023-01-01T04:03:34.121Z,3.27
2023-01-01T04:06:02.830Z,3.22
2023-01-01T04:08:33.554Z,3.23
2023-01-01T04:11:24.610Z,3.24
2023-01-01T04:13:51.575Z,3.20
2023-01-01T04:16:18.410Z,3.16
2023-01-01T04:18:47.366Z,3.15
2023-01-01T04:21:14.221Z,3.18
2023-01-01T04:23:41.199Z,3.20
2023-01-01T04:26:13.393Z,3.20
2023-01-01T04:28:41.850Z,3.20
2023-01-01T04:31:10.168Z,3.20
2023-01-01T04:33:37.577Z,3.13
2023-01-01T04:36:09.767Z,3.16
2023-01-01T04:38:37.789Z,3.16
2023-01-01T04:41:05.369Z,3.11
2023-01-01T04:43:32.746Z,3.17
2023-01-01T04:46:04.114Z,3.16
2023-01-01T04:48:31.949Z,3.14
2023-01-01T04:51:04.765Z,3.11
2023-01-01T04:53:34.395Z,3.16
2023-01-01T04:56:30.790Z,3.16
2023-01-01T04:58:58.629Z,3.07
2023-01-01T05:01:28.143Z,3.07
2023-01-01T05:03:56.092Z,3.10
2023-01-01T05:06:23.787Z,3.12
2023-01-01T05:08:52.955Z,3.00
2023-01-01T05:11:21.352Z,3.07
2023-01-01T05:13:50.267Z,2.96
2023-01-01T05:16:19.607Z,3.01
2023-01-01T05:18:47.448Z,3.01
2023-01-01T05:21:17.166Z,3.01
2023-01-01T05:23:44.296Z,2.93
2023-01-01T05:26:19.923Z,2.99
2023-01-01T05:28:47.875Z,2.91
2023-01-01T05:31:20.225Z,2.93
2023-01-01T05:33:47.457Z,2.95
2023-01-01T05:36:18.821Z,2.84
2023-01-01T05:38:46.663Z,2.89
2023-01-01T05:41:15.971Z,2.91
2023-01-01T05:43:43.273Z,2.90
2023-01-01T05:46:22.344Z,2.80
2023-01-01T05:48:50.008Z,2.74
2023-01-01T05:51:20.036Z,2.77
2023-01-01T05:53:47.543Z,2.69
2023-01-01T05:56:15.830Z,2.74
2023-01-01T05:58:43.811Z,2.79
2023-01-01T06:01:20.762Z,2.63
2023-01-01T06:03:51.284Z,2.72
2023-01-01T06:06:20.183Z,2.73
2023-01-01T06:09:12.235Z,2.72
2023-01-01T06:11:39.474Z,2.69
2023-01-01T06:14:06.331Z,2.59
2023-01-01T06:16:34.150Z,2.69
2023-01-01T06:19:01.168Z,2.72
2023-01-01T06:21:29.659Z,2.72
2023-01-01T06:23:59.244Z,2.60
2023-01-01T06:26:31.759Z,2.69
2023-01-01T06:29:01.706Z,2.43
2023-01-01T06:31:32.894Z,2.81
2023-01-01T06:34:02.679Z,2.78
2023-01-01T06:36:29.555Z,2.81
2023-01-01T06:38:56.974Z,2.95
2023-01-01T06:41:25.600Z,2.99
2023-01-01T06:43:52.934Z,2.75
2023-01-01T06:46:34.294Z,3.02
2023-01-01T06:49:11.118Z,3.03
2023-01-01T06:51:40.828Z,3.09
2023-01-01T06:54:08.194Z,3.05
2023-01-01T06:56:36.062Z,3.10
2023-01-01T06:59:04.539Z,2.95
2023-01-01T07:01:33.708Z,2.96
2023-01-01T07:04:04.309Z,2.95
2023-01-01T07:06:33.199Z,2.97
2023-01-01T07:09:00.725Z,3.05
2023-01-01T07:11:28.847Z,3.01
2023-01-01T07:13:55.725Z,3.13
2023-01-01T07:16:23.418Z,3.19
2023-01-01T07:18:51.012Z,3.26
2023-01-01T07:21:30.304Z,3.33
2023-01-01T07:23:58.020Z,3.42
2023-01-01T07:26:26.017Z,3.41
2023-01-01T07:28:53.404Z,3.46
2023-01-01T07:31:20.725Z,3.55
2023-01-01T07:33:47.856Z,3.58
2023-01-01T07:36:16.775Z,3.63
2023-01-01T07:38:43.790Z,3.65
2023-01-01T07:41:10.673Z,3.75
2023-01-01T07:43:37.594Z,3.73
2023-01-01T07:46:05.184Z,3.68
2023-01-01T07:48:37.862Z,3.77
2023-01-01T07:51:06.878Z,3.70
2023-01-01T07:53:33.883Z,3.47
2023-01-01T07:56:00.926Z,3.78
2023-01-01T07:58:27.808Z,3.74
2023-01-01T08:00:54.739Z,3.85
2023-01-01T08:03:21.544Z,3.91
2023-01-01T08:05:48.785Z,3.86
2023-01-01T08:08:15.881Z,3.88
2023-01-01T08:10:42.793Z,3.95
2023-01-01T08:13:09.733Z,3.97
2023-01-01T08:15:36.736Z,4.11
2023-01-01T08:18:05.449Z,4.11
2023-01-01T08:20:34.163Z,3.91
2023-01-01T08:23:07.427Z,4.14
2023-01-01T08:25:36.242Z,4.21
2023-01-01T08:28:03.076Z,4.22
2023-01-01T08:30:30.105Z,4.38
2023-01-01T08:32:57.702Z,4.41
2023-01-01T08:35:24.818Z,4.57
2023-01-01T08:37:51.600Z,4.62
2023-01-01T08:40:18.584Z,4.60
2023-01-01T08:42:45.445Z,4.71
2023-01-01T08:45:12.436Z,4.72
2023-01-01T08:47:39.540Z,4.76
2023-01-01T08:50:07.120Z,4.82
2023-01-01T08:52:33.931Z,4.97
2023-01-01T08:55:01.211Z,4.93
2023-01-01T08:57:31.947Z,5.04
2023-01-01T08:59:58.923Z,5.09
2023-01-01T09:02:25.987Z,5.12
2023-01-01T09:04:53.326Z,5.18
2023-01-01T09:07:20.247Z,5.28
2023-01-01T09:09:48.378Z,5.09
2023-01-01T09:12:16.943Z,5.41
2023-01-01T09:14:48.008Z,5.49
2023-01-01T09:17:15.123Z,5.54
2023-01-01T09:19:41.917Z,5.65
2023-01-01T09:22:10.813Z,5.72
2023-01-01T09:24:38.062Z,5.70
2023-01-01T09:27:05.116Z,5.92
2023-01-01T09:29:32.104Z,6.04
2023-01-01T09:31:58.972Z,6.00
2023-01-01T09:34:25.895Z,6.12
2023-01-01T09:36:52.732Z,6.07
2023-01-01T09:39:19.664Z,6.19
2023-01-01T09:41:58.658Z,6.27
2023-01-01T09:44:44.425Z,6.28
2023-01-01T09:47:23.477Z,6.33
2023-01-01T09:49:52.710Z,6.29
2023-01-01T09:52:20.447Z,6.28
2023-01-01T09:54:58.236Z,6.47
2023-01-01T09:57:29.935Z,6.37
2023-01-01T09:59:59.549Z,6.59
2023-01-01T10:03:03.771Z,6.67
2023-01-01T10:05:50.048Z,6.74
2023-01-01T10:08:55.323Z,6.48
2023-01-01T10:11:30.945Z,6.77
2023-01-01T10:14:00.136Z,6.87
2023-01-01T10:16:35.939Z,6.93
2023-01-01T10:19:17.600Z,7.02
2023-01-01T10:21:47.559Z,7.12
2023-01-01T10:24:28.019Z,7.03
2023-01-01T10:26:57.059Z,7.28
2023-01-01T10:29:36.169Z,7.37
2023-01-01T10:32:30.728Z,7.27
2023-01-01T10:34:59.043Z,7.55
2023-01-01T10:37:30.500Z,7.66
2023-01-01T10:39:57.574Z,7.69
2023-01-01T10:42:26.246Z,7.63
2023-01-01T10:44:54.129Z,7.80
2023-01-01T10:47:28.355Z,7.96
2023-01-01T10:50:07.929Z,8.01
2023-01-01T10:52:38.451Z,8.16
2023-01-01T10:55:06.791Z,8.27
2023-01-01T10:57:40.740Z,8.21
2023-01-01T11:00:28.575Z,8.31
2023-01-01T11:03:06.677Z,8.59
2023-01-01T11:05:33.604Z,8.71
2023-01-01T11:08:01.874Z,8.81
2023-01-01T11:10:31.295Z,8.74
2023-01-01T11:13:06.482Z,9.05
2023-01-01T11:15:40.521Z,9.05
2023-01-01T11:18:12.159Z,9.21
2023-01-01T11:20:40.379Z,9.21
2023-01-01T11:23:26.194Z,9.37
2023-01-01T11:26:21.031Z,9.48
2023-01-01T11:29:17.225Z,9.52
2023-01-01T11:31:48.155Z,9.64
2023-01-01T11:34:38.208Z,9.72
2023-01-01T11:37:29.346Z,9.73
2023-01-01T11:39:58.642Z,9.76
2023-01-01T11:42:34.882Z,9.81
2023-01-01T11:45:41.710Z,9.98
2023-01-01T11:48:22.488Z,10.05
2023-01-01T11:50:55.907Z,10.11
2023-01-01T11:53:22.862Z,10.20
2023-01-01T11:55:52.802Z,10.28
2023-01-01T11:58:51.153Z,10.40
2023-01-01T12:01:31.584Z,10.47
2023-01-01T12:04:04.554Z,10.54
2023-01-01T12:06:48.504Z,10.58
2023-01-01T12:09:27.534Z,10.61
2023-01-01T12:12:11.351Z,10.66
2023-01-01T12:14:57.176Z,10.69
2023-01-01T12:17:51.870Z,10.78
2023-01-01T12:20:37.533Z,10.82
2023-01-01T12:23:04.958Z,10.74
2023-01-01T12:26:04.012Z,10.91
2023-01-01T12:28:40.288Z,10.90
2023-01-01T12:31:07.505Z,10.93
2023-01-01T12:33:57.571Z,11.00
2023-01-01T12:36:39.865Z,11.06
2023-01-01T12:39:37.504Z,11.15
2023-01-01T12:42:26.220Z,11.17
2023-01-01T12:45:11.065Z,11.25
2023-01-01T12:48:03.057Z,11.30
2023-01-01T12:50:39.197Z,11.31
2023-01-01T12:53:40.512Z,11.25
2023-01-01T12:56:28.591Z,11.43
2023-01-01T12:59:12.737Z,11.42
2023-01-01T13:01:42.160Z,11.47
2023-01-01T13:04:17.228Z,11.54
2023-01-01T13:07:05.895Z,11.61
2023-01-01T13:09:39.544Z,11.57
2023-01-01T13:12:12.337Z,11.63
2023-01-01T13:14:44.818Z,11.66
2023-01-01T13:17:22.845Z,11.73
2023-01-01T13:19:58.588Z,11.74
2023-01-01T13:22:25.447Z,11.80
2023-01-01T13:25:16.489Z,11.87
2023-01-01T13:28:03.456Z,11.85
2023-01-01T13:30:45.564Z,11.88
2023-01-01T13:33:31.180Z,11.92
2023-01-01T13:36:10.556Z,11.97
2023-01-01T13:38:48.005Z,12.01
2023-01-01T13:41:30.393Z,11.99
2023-01-01T13:44:00.095Z,12.02
2023-01-01T13:46:33.429Z,12.06
2023-01-01T13:49:01.919Z,12.08
2023-01-01T13:52:07.958Z,12.10
2023-01-01T13:55:05.577Z,12.11
2023-01-01T13:57:47.769Z,12.11
2023-01-01T14:00:45.243Z,12.12
2023-01-01T14:03:18.158Z,11.86
2023-01-01T14:05:55.665Z,12.04
2023-01-01T14:08:41.295Z,12.01
2023-01-01T14:11:41.261Z,11.98
2023-01-01T14:14:25.418Z,12.01
2023-01-01T14:16:54.298Z,11.94
2023-01-01T14:19:22.729Z,11.94
2023-01-01T14:21:50.008Z,11.71
2023-01-01T14:24:20.007Z,11.91
2023-01-01T14:26:48.296Z,11.83
2023-01-01T14:29:29.447Z,11.74
2023-01-01T14:31:59.334Z,11.73
2023-01-01T14:34:32.563Z,11.68
2023-01-01T14:37:05.687Z,11.60
2023-01-01T14:39:35.080Z,11.55
2023-01-01T14:42:13.667Z,11.50
2023-01-01T14:44:43.852Z,11.45
2023-01-01T14:47:29.022Z,11.39
2023-01-01T14:50:08.962Z,11.26
2023-01-01T14:52:36.348Z,11.24
2023-01-01T14:55:05.133Z,11.20
2023-01-01T14:57:37.629Z,11.16
2023-01-01T15:00:21.439Z,11.03
2023-01-01T15:02:48.940Z,10.93
2023-01-01T15:05:34.782Z,10.85
2023-01-01T15:08:05.711Z,10.68
2023-01-01T15:10:36.127Z,10.69
2023-01-01T15:13:06.686Z,10.63
2023-01-01T15:15:40.540Z,10.54
2023-01-01T15:18:41.006Z,10.48
2023-01-01T15:21:32.233Z,10.40
2023-01-01T15:24:07.787Z,10.30
2023-01-01T15:26:43.396Z,10.24
2023-01-01T15:29:16.948Z,10.12
2023-01-01T15:31:49.137Z,10.09
2023-01-01T15:35:02.518Z,10.01
2023-01-01T15:37:35.997Z,9.70
2023-01-01T15:40:23.022Z,9.83
2023-01-01T15:42:59.061Z,9.76
2023-01-01T15:45:25.972Z,9.66
2023-01-01T15:47:55.384Z,9.59
2023-01-01T15:50:25.869Z,9.42
2023-01-01T15:52:57.439Z,9.40
2023-01-01T15:55:27.614Z,9.39
2023-01-01T15:57:56.524Z,9.34
2023-01-01T16:00:25.739Z,9.25
2023-01-01T16:02:56.560Z,9.15
2023-01-01T16:05:26.086Z,9.09
2023-01-01T16:08:04.695Z,9.02
2023-01-01T16:10:32.339Z,8.95
2023-01-01T16:12:59.425Z,8.83
2023-01-01T16:15:27.488Z,8.71
2023-01-01T16:17:55.336Z,8.75
2023-01-01T16:20:22.923Z,8.64
2023-01-01T16:22:49.965Z,8.63
2023-01-01T16:25:20.162Z,8.58
2023-01-01T16:27:47.579Z,8.53
2023-01-01T16:30:15.441Z,8.45
2023-01-01T16:32:42.381Z,8.41
2023-01-01T16:35:13.665Z,8.40
2023-01-01T16:37:40.681Z,8.27
2023-01-01T16:40:09.434Z,8.32
2023-01-01T16:42:37.234Z,8.20
2023-01-01T16:45:04.723Z,8.18
2023-01-01T16:47:31.633Z,8.06
2023-01-01T16:49:58.593Z,8.05
2023-01-01T16:52:29.923Z,8.03
2023-01-01T16:54:59.807Z,8.09
2023-01-01T16:57:27.225Z,7.99
2023-01-01T16:59:54.127Z,7.94
2023-01-01T17:02:21.043Z,7.89
2023-01-01T17:04:48.207Z,7.88
2023-01-01T17:07:15.102Z,7.85
2023-01-01T17:09:43.136Z,7.82
2023-01-01T17:12:10.110Z,7.46
2023-01-01T17:14:36.961Z,7.70
2023-01-01T17:17:04.021Z,7.68
2023-01-01T17:19:30.863Z,7.63
2023-01-01T17:21:57.749Z,7.38
2023-01-01T17:24:24.970Z,7.62
2023-01-01T17:26:53.864Z,7.57
2023-01-01T17:29:21.565Z,7.44
2023-01-01T17:31:48.643Z,7.52
2023-01-01T17:34:15.584Z,7.10
2023-01-01T17:36:43.960Z,7.40
2023-01-01T17:39:12.215Z,7.31
2023-01-01T17:41:40.099Z,7.24
2023-01-01T17:44:07.276Z,7.31
2023-01-01T17:46:34.519Z,7.28
2023-01-01T17:49:02.981Z,7.06
2023-01-01T17:51:30.344Z,7.19
2023-01-01T17:53:58.257Z,7.18
2023-01-01T17:56:25.517Z,7.01
2023-01-01T17:58:54.096Z,7.08
2023-01-01T18:01:24.518Z,7.09
2023-01-01T18:03:54.395Z,7.02
2023-01-01T18:06:22.026Z,6.98
2023-01-01T18:08:49.366Z,7.01
2023-01-01T18:11:16.323Z,6.93
2023-01-01T18:13:43.152Z,6.92
2023-01-01T18:16:10.851Z,6.93
2023-01-01T18:18:39.715Z,6.66
2023-01-01T18:21:20.792Z,6.85
2023-01-01T18:23:49.879Z,6.77
2023-01-01T18:26:17.924Z,6.77
2023-01-01T18:28:45.188Z,6.68
2023-01-01T18:31:14.547Z,6.80
2023-01-01T18:33:41.788Z,6.76
2023-01-01T18:36:12.129Z,6.71
2023-01-01T18:38:43.778Z,6.65
2023-01-01T18:41:20.368Z,6.68
2023-01-01T18:43:50.075Z,6.64
2023-01-01T18:46:17.011Z,6.62
2023-01-01T18:48:45.165Z,6.57
2023-01-01T18:51:21.933Z,6.64
2023-01-01T18:53:51.781Z,6.62
2023-01-01T18:56:20.652Z,6.52
2023-01-01T18:58:49.481Z,6.55
2023-01-01T19:01:19.210Z,6.55
2023-01-01T19:03:51.678Z,6.23
2023-01-01T19:06:28.033Z,6.31
2023-01-01T19:09:13.303Z,6.45
2023-01-01T19:11:40.419Z,6.34
2023-01-01T19:14:18.385Z,6.34
2023-01-01T19:16:47.663Z,6.32
2023-01-01T19:19:33.761Z,6.32
2023-01-01T19:22:26.130Z,6.30
2023-01-01T19:24:54.247Z,6.29
2023-01-01T19:27:24.877Z,6.28
2023-01-01T19:29:52.474Z,6.23
2023-01-01T19:32:21.381Z,6.17
2023-01-01T19:34:48.509Z,5.96
2023-01-01T19:37:15.339Z,6.07
2023-01-01T19:39:42.845Z,6.14
2023-01-01T19:42:10.505Z,6.14
2023-01-01T19:44:37.565Z,6.13
2023-01-01T19:47:04.960Z,6.05
2023-01-01T19:49:32.395Z,6.08
2023-01-01T19:51:59.326Z,6.02
2023-01-01T19:54:26.709Z,5.95
2023-01-01T19:56:53.824Z,5.97
2023-01-01T19:59:20.915Z,5.96
2023-01-01T20:02:03.286Z,5.91
2023-01-01T20:04:34.809Z,5.97
2023-01-01T20:07:01.850Z,5.94
2023-01-01T20:09:29.005Z,5.84
2023-01-01T20:11:55.918Z,5.85
2023-01-01T20:14:22.779Z,5.88
2023-01-01T20:16:51.928Z,5.90
2023-01-01T20:19:20.252Z,5.86
2023-01-01T20:22:05.460Z,5.80
2023-01-01T20:24:32.577Z,5.76
2023-01-01T20:27:01.483Z,5.65
2023-01-01T20:29:28.545Z,5.69
2023-01-01T20:31:56.213Z,5.72
2023-01-01T20:34:23.660Z,5.71
2023-01-01T20:37:09.765Z,5.70
2023-01-01T20:39:38.287Z,5.66
2023-01-01T20:42:05.520Z,5.69
2023-01-01T20:44:32.406Z,5.32
2023-01-01T20:46:59.532Z,5.48
2023-01-01T20:49:26.489Z,5.62
2023-01-01T20:51:53.560Z,5.46
2023-01-01T20:54:21.598Z,5.58
2023-01-01T20:56:48.552Z,5.53
2023-01-01T20:59:34.902Z,5.54
2023-01-01T21:02:04.202Z,5.55
2023-01-01T21:04:31.534Z,5.52
2023-01-01T21:06:58.538Z,5.52
2023-01-01T21:09:25.629Z,5.44
2023-01-01T21:11:52.730Z,5.43
2023-01-01T21:14:25.335Z,5.42
2023-01-01T21:16:52.409Z,5.42
2023-01-01T21:19:26.062Z,5.39
2023-01-01T21:21:56.224Z,5.37
2023-01-01T21:24:29.082Z,5.33
2023-01-01T21:27:05.749Z,5.37
2023-01-01T21:29:33.270Z,5.33
2023-01-01T21:32:21.482Z,5.35
2023-01-01T21:34:50.565Z,5.31
2023-01-01T21:37:52.350Z,5.18
2023-01-01T21:40:25.350Z,5.25
2023-01-01T21:43:27.296Z,5.25
2023-01-01T21:45:56.650Z,5.19
2023-01-01T21:48:32.683Z,5.23
2023-01-01T21:51:00.995Z,5.00
2023-01-01T21:53:30.764Z,5.15
2023-01-01T21:55:57.857Z,5.05
2023-01-01T21:58:55.872Z,4.79
2023-01-01T22:01:27.444Z,5.14
2023-01-01T22:04:14.988Z,5.13
2023-01-01T22:06:48.549Z,5.11
2023-01-01T22:09:24.799Z,4.94
2023-01-01T22:11:57.025Z,5.04
2023-01-01T22:14:27.571Z,5.02
2023-01-01T22:16:58.250Z,5.04
2023-01-01T22:19:31.931Z,5.06
2023-01-01T22:21:59.656Z,4.94
2023-01-01T22:24:29.612Z,5.02
2023-01-01T22:26:57.595Z,5.00
2023-01-01T22:29:25.953Z,4.99
2023-01-01T22:32:13.089Z,4.88
2023-01-01T22:34:40.149Z,4.79
2023-01-01T22:37:22.049Z,4.88
2023-01-01T22:39:50.267Z,4.83
2023-01-01T22:42:19.665Z,4.89
2023-01-01T22:44:56.152Z,4.82
2023-01-01T22:47:31.826Z,4.85
2023-01-01T22:50:00.574Z,4.83
2023-01-01T22:52:28.988Z,4.76
2023-01-01T22:54:56.043Z,4.76
2023-01-01T22:57:22.985Z,4.72
2023-01-01T22:59:50.027Z,4.62
2023-01-01T23:02:16.918Z,4.56
2023-01-01T23:04:44.331Z,4.67
2023-01-01T23:07:14.509Z,4.61
2023-01-01T23:09:42.630Z,4.58
2023-01-01T23:12:09.844Z,4.58
2023-01-01T23:14:55.487Z,4.53
2023-01-01T23:17:22.571Z,4.44
2023-01-01T23:19:49.464Z,4.54
2023-01-01T23:22:18.173Z,4.46
2023-01-01T23:24:46.564Z,4.41
2023-01-01T23:27:15.107Z,4.43
2023-01-01T23:29:46.241Z,4.37
2023-01-01T23:32:14.287Z,4.38
2023-01-01T23:34:42.785Z,4.25
2023-01-01T23:37:10.985Z,4.37
2023-01-01T23:39:38.116Z,4.33
2023-01-01T23:42:05.135Z,4.29
2023-01-01T23:44:32.196Z,4.27
2023-01-01T23:47:01.100Z,4.28
2023-01-01T23:49:31.657Z,4.14
2023-01-01T23:51:59.372Z,4.29
2023-01-01T23:54:26.303Z,4.28
2023-01-01T23:56:53.148Z,4.24
2023-01-01T23:59:20.152Z,4.16
